Terminal Aerodrome Forecast
Issued by NWS

Home | Current Version | Previous Version | Text Only | Print | Product List | Glossary On
Versions: 1 2 3 4 5 6 7 8 9 10 11 12 13 14 15 16
000
FTUS41 KILN 291700
TAFLCK
TAF
KLCK 291739Z 2918/3018 13005KT P6SM FEW060 SCT250
     FM300900 15004KT P6SM SCT100 BKN200
     FM301500 20009KT P6SM SCT050 BKN200
     FM301700 21010G18KT P6SM SCT050 BKN200=

USA.gov is the U.S. government's official web portal to all federal, state and local government web resources and services.